createdAt,value
2023-05-08T00:01:17.384Z,2.20
2023-05-08T00:04:03.947Z,2.20
2023-05-08T00:06:53.408Z,2.30
2023-05-08T00:09:40.120Z,2.20
2023-05-08T00:12:26.894Z,2.10
2023-05-08T00:15:14.416Z,3.50
2023-05-08T00:18:01.310Z,2.80
2023-05-08T00:20:48.649Z,2.90
2023-05-08T00:23:34.597Z,2.50
2023-05-08T00:26:24.306Z,3.30
2023-05-08T00:29:18.633Z,2.40
2023-05-08T00:32:06.528Z,2.40
2023-05-08T00:34:56.235Z,2.60
2023-05-08T00:37:43.411Z,2.10
2023-05-08T00:40:30.112Z,3.40
2023-05-08T00:43:19.252Z,2.50
2023-05-08T00:46:06.597Z,2.20
2023-05-08T00:48:53.695Z,2.00
2023-05-08T00:51:41.855Z,3.30
2023-05-08T00:54:29.543Z,2.90
2023-05-08T00:57:16.429Z,2.30
2023-05-08T01:00:06.938Z,2.40
2023-05-08T01:03:00.546Z,2.30
2023-05-08T01:05:46.998Z,2.50
2023-05-08T01:08:32.959Z,2.30
2023-05-08T01:11:33.427Z,2.30
2023-05-08T01:14:31.743Z,2.30
2023-05-08T01:17:38.296Z,2.50
2023-05-08T01:20:31.957Z,3.10
2023-05-08T01:23:34.590Z,3.00
2023-05-08T01:26:33.041Z,2.90
2023-05-08T01:29:33.642Z,2.50
2023-05-08T01:32:23.099Z,2.40
2023-05-08T01:35:15.800Z,2.90
2023-05-08T01:40:53.089Z,2.80
2023-05-08T01:43:46.000Z,4.10
2023-05-08T01:46:32.410Z,3.00
2023-05-08T01:49:22.269Z,3.60
2023-05-08T01:52:14.277Z,4.40
2023-05-08T01:55:05.738Z,3.30
2023-05-08T01:57:53.724Z,3.70
2023-05-08T02:00:41.218Z,3.30
2023-05-08T02:03:31.128Z,2.90
2023-05-08T02:06:19.942Z,2.60
2023-05-08T02:09:07.521Z,3.50
2023-05-08T02:11:55.055Z,3.00
2023-05-08T02:14:42.088Z,2.70
2023-05-08T02:17:30.412Z,2.70
2023-05-08T02:20:19.763Z,2.40
2023-05-08T02:23:06.044Z,2.40
2023-05-08T02:25:55.344Z,2.90
2023-05-08T02:28:41.851Z,2.90
2023-05-08T02:31:29.057Z,2.10
2023-05-08T02:34:15.678Z,2.70
2023-05-08T02:37:03.287Z,2.80
2023-05-08T02:39:51.444Z,3.30
2023-05-08T02:42:37.790Z,2.80
2023-05-08T02:45:26.763Z,2.50
2023-05-08T02:48:18.582Z,3.00
2023-05-08T02:51:10.488Z,2.10
2023-05-08T02:54:10.244Z,2.50
2023-05-08T02:56:59.556Z,2.50
2023-05-08T02:59:48.168Z,1.90
2023-05-08T03:02:41.906Z,3.20
2023-05-08T03:05:30.355Z,2.70
2023-05-08T03:08:18.172Z,2.40
2023-05-08T03:11:11.697Z,2.30
2023-05-08T03:14:00.287Z,2.70
2023-05-08T03:16:47.162Z,3.30
2023-05-08T03:19:37.424Z,4.20
2023-05-08T03:22:27.955Z,3.10
2023-05-08T03:25:16.396Z,3.10
2023-05-08T03:28:04.051Z,2.60
2023-05-08T03:30:50.459Z,3.10
2023-05-08T03:33:38.096Z,2.90
2023-05-08T03:36:26.336Z,2.80
2023-05-08T03:39:13.067Z,3.10
2023-05-08T03:41:59.295Z,2.30
2023-05-08T03:44:45.410Z,2.90
2023-05-08T03:47:31.811Z,3.10
2023-05-08T03:50:18.518Z,3.60
2023-05-08T03:53:04.910Z,3.30
2023-05-08T03:55:51.335Z,3.00
2023-05-08T03:58:43.562Z,2.10
2023-05-08T04:01:43.751Z,3.60
2023-05-08T04:04:39.416Z,3.40
2023-05-08T04:07:37.952Z,2.60
2023-05-08T04:10:28.847Z,2.50
2023-05-08T04:13:18.230Z,4.10
2023-05-08T04:16:06.817Z,2.60
2023-05-08T04:19:03.050Z,3.00
2023-05-08T04:21:50.908Z,2.70
2023-05-08T04:24:42.361Z,2.60
2023-05-08T04:27:29.768Z,3.60
2023-05-08T04:30:17.530Z,3.10
2023-05-08T04:33:05.309Z,2.80
2023-05-08T04:35:52.020Z,3.00
2023-05-08T04:38:39.319Z,2.70
2023-05-08T04:41:26.485Z,2.80
2023-05-08T04:44:12.993Z,3.30
2023-05-08T04:47:02.799Z,3.20
2023-05-08T04:49:48.962Z,3.50
2023-05-08T04:52:36.073Z,2.60
2023-05-08T04:55:22.377Z,3.00
2023-05-08T04:58:10.180Z,3.10
2023-05-08T05:00:56.496Z,2.90
2023-05-08T05:03:44.609Z,2.60
2023-05-08T05:06:30.780Z,2.60
2023-05-08T05:09:17.239Z,3.10
2023-05-08T05:12:03.782Z,3.10
2023-05-08T05:14:50.182Z,3.00
2023-05-08T05:17:36.355Z,4.60
2023-05-08T05:20:22.695Z,3.10
2023-05-08T05:23:09.557Z,3.00
2023-05-08T05:25:55.606Z,2.90
2023-05-08T05:28:42.414Z,3.50
2023-05-08T05:31:29.414Z,2.90
2023-05-08T05:34:15.978Z,2.50
2023-05-08T05:37:03.285Z,3.10
2023-05-08T05:39:49.194Z,3.40
2023-05-08T05:42:35.796Z,2.50
2023-05-08T05:45:22.162Z,3.20
2023-05-08T05:48:08.983Z,3.20
2023-05-08T05:50:54.901Z,3.10
2023-05-08T05:53:41.851Z,2.90
2023-05-08T05:56:28.561Z,3.20
2023-05-08T05:59:15.007Z,3.00
2023-05-08T06:02:01.535Z,2.90
2023-05-08T06:04:50.928Z,2.90
2023-05-08T06:07:37.816Z,4.70
2023-05-08T06:10:24.345Z,4.90
2023-05-08T06:13:10.708Z,4.30
2023-05-08T06:15:56.856Z,5.40
2023-05-08T06:18:43.569Z,4.00
2023-05-08T06:21:29.520Z,3.20
2023-05-08T06:24:15.966Z,3.80
2023-05-08T06:27:02.182Z,3.10
2023-05-08T06:29:51.099Z,3.70
2023-05-08T06:32:37.325Z,3.40
2023-05-08T06:35:23.815Z,3.80
2023-05-08T06:38:09.986Z,2.10
2023-05-08T06:40:57.070Z,4.00
2023-05-08T06:43:50.669Z,3.70
2023-05-08T06:46:37.041Z,3.30
2023-05-08T06:49:24.199Z,3.30
2023-05-08T06:52:10.062Z,3.80
2023-05-08T06:54:55.893Z,4.00
2023-05-08T06:57:42.129Z,4.60
2023-05-08T07:00:30.958Z,4.50
2023-05-08T07:03:17.583Z,4.40
2023-05-08T07:06:04.647Z,3.20
2023-05-08T07:08:50.827Z,3.90
2023-05-08T07:11:37.717Z,4.10
2023-05-08T07:14:23.833Z,4.40
2023-05-08T07:17:11.464Z,3.00
2023-05-08T07:19:57.642Z,3.10
2023-05-08T07:22:44.944Z,3.70
2023-05-08T07:25:36.674Z,4.00
2023-05-08T07:28:24.210Z,3.80
2023-05-08T07:31:10.640Z,3.90
2023-05-08T07:33:57.288Z,4.10
2023-05-08T07:36:44.707Z,3.40
2023-05-08T07:39:31.180Z,3.70
2023-05-08T07:42:41.420Z,3.70
2023-05-08T07:45:32.466Z,3.30
2023-05-08T07:48:19.840Z,3.40
2023-05-08T07:51:07.336Z,3.30
2023-05-08T07:53:58.584Z,3.50
2023-05-08T07:56:44.959Z,3.30
2023-05-08T07:59:34.438Z,3.10
2023-05-08T08:02:22.278Z,3.40
2023-05-08T08:05:20.666Z,3.70
2023-05-08T08:08:07.886Z,3.10
2023-05-08T08:10:54.424Z,2.90
2023-05-08T08:13:48.925Z,2.80
2023-05-08T08:16:36.517Z,3.30
2023-05-08T08:19:22.517Z,3.80
2023-05-08T08:22:10.139Z,3.30
2023-05-08T08:24:56.078Z,3.20
2023-05-08T08:27:42.286Z,3.10
2023-05-08T08:30:33.003Z,2.90
2023-05-08T08:33:22.372Z,3.30
2023-05-08T08:36:15.287Z,3.20
2023-05-08T08:39:01.354Z,3.40
2023-05-08T08:41:48.274Z,3.40
2023-05-08T08:44:40.088Z,4.00
2023-05-08T08:47:40.681Z,4.00
2023-05-08T08:50:26.847Z,3.70
2023-05-08T08:53:35.147Z,4.00
2023-05-08T08:56:23.503Z,3.30
2023-05-08T08:59:30.501Z,2.80
2023-05-08T09:02:19.631Z,3.40
2023-05-08T09:05:15.638Z,3.00
2023-05-08T09:08:02.527Z,3.20
2023-05-08T09:10:48.925Z,2.80
2023-05-08T09:13:35.180Z,3.50
2023-05-08T09:16:22.617Z,3.10
2023-05-08T09:19:08.938Z,3.30
2023-05-08T09:21:57.032Z,2.80
2023-05-08T09:24:55.527Z,3.20
2023-05-08T09:27:44.753Z,3.00
2023-05-08T09:30:31.565Z,2.80
2023-05-08T09:33:18.475Z,2.60
2023-05-08T09:36:04.787Z,2.20
2023-05-08T09:38:53.693Z,2.60
2023-05-08T09:42:04.284Z,2.90
2023-05-08T09:45:04.017Z,2.70
2023-05-08T09:47:50.441Z,3.30
2023-05-08T09:50:38.176Z,2.10
2023-05-08T09:53:30.900Z,2.60
2023-05-08T09:56:38.975Z,2.50
2023-05-08T09:59:26.672Z,2.20
2023-05-08T10:02:15.606Z,2.00
2023-05-08T10:05:01.899Z,2.40
2023-05-08T10:08:17.402Z,2.70
2023-05-08T10:11:20.147Z,2.20
2023-05-08T10:14:24.654Z,2.90
2023-05-08T10:17:11.461Z,2.20
2023-05-08T10:20:07.155Z,2.10
2023-05-08T10:22:53.376Z,2.20
2023-05-08T10:25:43.448Z,2.20
2023-05-08T10:28:52.651Z,2.40
2023-05-08T10:31:43.485Z,2.20
2023-05-08T10:34:43.313Z,2.00
2023-05-08T10:37:35.620Z,2.30
2023-05-08T10:40:26.339Z,2.00
2023-05-08T10:43:20.392Z,2.30
2023-05-08T10:46:29.617Z,2.10
2023-05-08T10:49:39.750Z,2.40
2023-05-08T10:52:44.501Z,2.70
2023-05-08T10:55:37.080Z,2.20
2023-05-08T10:58:24.066Z,3.00
2023-05-08T11:01:10.702Z,2.50
2023-05-08T11:03:56.758Z,2.80
2023-05-08T11:06:44.260Z,2.90
2023-05-08T11:09:44.437Z,3.00
2023-05-08T11:12:53.956Z,3.90
2023-05-08T11:15:41.141Z,2.30
2023-05-08T11:18:45.778Z,2.40
2023-05-08T11:21:36.118Z,2.80
2023-05-08T11:25:00.477Z,2.40
2023-05-08T11:27:50.223Z,2.80
2023-05-08T11:31:03.157Z,2.70
2023-05-08T11:33:55.601Z,2.10
2023-05-08T11:36:59.845Z,1.60
2023-05-08T11:39:49.317Z,2.50
2023-05-08T11:42:35.413Z,2.30
2023-05-08T11:45:23.706Z,2.30
2023-05-08T11:48:16.149Z,2.30
2023-05-08T11:51:19.629Z,2.20
2023-05-08T11:54:21.460Z,2.70
2023-05-08T11:57:19.516Z,2.10
2023-05-08T12:00:11.782Z,1.60
2023-05-08T12:03:11.659Z,1.70
2023-05-08T12:06:13.307Z,2.70
2023-05-08T12:09:00.889Z,2.10
2023-05-08T12:11:58.259Z,2.10
2023-05-08T12:14:44.681Z,2.30
2023-05-08T12:18:08.694Z,1.70
2023-05-08T12:21:16.148Z,1.80
2023-05-08T12:24:26.747Z,1.60
2023-05-08T12:27:13.921Z,2.10
2023-05-08T12:30:24.452Z,1.80
2023-05-08T12:33:12.630Z,2.70
2023-05-08T12:36:31.622Z,2.10
2023-05-08T12:39:28.080Z,1.80
2023-05-08T12:42:30.694Z,2.10
2023-05-08T12:45:20.818Z,2.00
2023-05-08T12:48:08.015Z,1.60
2023-05-08T12:50:55.135Z,2.10
2023-05-08T12:53:45.634Z,1.50
2023-05-08T12:56:31.467Z,1.90
2023-05-08T12:59:28.033Z,2.40
2023-05-08T13:02:15.885Z,1.20
2023-05-08T13:05:10.951Z,1.80
2023-05-08T13:08:55.148Z,1.50
2023-05-08T13:12:13.135Z,1.60
2023-05-08T13:15:00.511Z,1.70
2023-05-08T13:17:51.315Z,1.90
2023-05-08T13:20:45.852Z,1.60
2023-05-08T13:23:44.276Z,1.40
2023-05-08T13:26:48.687Z,1.50
2023-05-08T13:29:51.004Z,2.30
2023-05-08T13:32:41.657Z,2.00
2023-05-08T13:35:46.233Z,2.20
2023-05-08T13:38:37.532Z,1.40
2023-05-08T13:41:35.595Z,1.90
2023-05-08T13:47:34.545Z,2.00
2023-05-08T13:50:27.153Z,2.40
2023-05-08T13:53:13.391Z,2.50
2023-05-08T13:56:05.185Z,2.30
2023-05-08T13:58:51.774Z,2.40
2023-05-08T14:01:43.101Z,2.00
2023-05-08T14:04:31.294Z,1.70
2023-05-08T14:07:18.200Z,1.40
2023-05-08T14:10:04.825Z,1.70
2023-05-08T14:12:52.242Z,1.70
2023-05-08T14:15:39.824Z,1.60
2023-05-08T14:18:31.912Z,1.80
2023-05-08T14:21:40.389Z,1.90
2023-05-08T14:24:31.330Z,1.90
2023-05-08T14:27:21.723Z,1.60
2023-05-08T14:30:28.136Z,1.90
2023-05-08T14:33:25.178Z,1.80
2023-05-08T14:36:11.248Z,2.40
2023-05-08T14:39:01.850Z,1.90
2023-05-08T14:42:14.043Z,1.90
2023-05-08T14:45:05.860Z,1.80
2023-05-08T14:47:52.070Z,1.70
2023-05-08T14:50:38.208Z,2.00
2023-05-08T14:53:24.883Z,1.90
2023-05-08T14:56:30.272Z,1.70
2023-05-08T15:02:46.038Z,1.70
2023-05-08T15:05:33.064Z,1.70
2023-05-08T15:08:19.193Z,3.20
2023-05-08T15:11:05.375Z,3.50
2023-05-08T15:13:52.240Z,2.80
2023-05-08T15:16:38.390Z,2.50
2023-05-08T15:19:25.055Z,2.60
2023-05-08T15:22:11.618Z,3.30
2023-05-08T15:25:03.272Z,2.20
2023-05-08T15:27:53.305Z,2.00
2023-05-08T15:30:39.650Z,2.50
2023-05-08T15:33:25.736Z,2.50
2023-05-08T15:36:14.809Z,2.20
2023-05-08T15:39:01.133Z,2.20
2023-05-08T15:41:49.796Z,1.80
2023-05-08T15:44:54.094Z,2.40
2023-05-08T15:47:50.410Z,2.10
2023-05-08T15:51:06.589Z,2.60
2023-05-08T15:53:56.258Z,2.10
2023-05-08T15:56:43.411Z,2.10
2023-05-08T15:59:35.593Z,2.50
2023-05-08T16:02:22.330Z,2.50
2023-05-08T16:05:08.573Z,2.20
2023-05-08T16:07:58.560Z,1.90
2023-05-08T16:10:48.208Z,1.90
2023-05-08T16:13:43.205Z,2.40
2023-05-08T16:16:29.126Z,2.00
2023-05-08T16:19:15.561Z,2.50
2023-05-08T16:22:01.930Z,2.20
2023-05-08T16:25:08.731Z,2.30
2023-05-08T16:28:15.984Z,1.80
2023-05-08T16:31:21.669Z,1.90
2023-05-08T16:34:18.386Z,2.30
2023-05-08T16:37:22.624Z,3.00
2023-05-08T16:40:36.821Z,2.20
2023-05-08T16:43:23.045Z,2.60
2023-05-08T16:46:12.358Z,2.30
2023-05-08T16:48:59.572Z,2.50
2023-05-08T16:51:45.595Z,2.30
2023-05-08T16:54:31.648Z,2.10
2023-05-08T16:57:17.640Z,2.40
2023-05-08T17:00:05.183Z,2.20
2023-05-08T17:02:51.391Z,2.40
2023-05-08T17:05:37.802Z,2.10
2023-05-08T17:08:23.684Z,1.70
2023-05-08T17:11:11.444Z,2.00
2023-05-08T17:13:57.446Z,2.40
2023-05-08T17:16:43.881Z,2.30
2023-05-08T17:19:29.687Z,2.10
2023-05-08T17:22:17.449Z,2.50
2023-05-08T17:25:03.602Z,3.80
2023-05-08T17:27:50.889Z,4.80
2023-05-08T17:30:37.029Z,3.40
2023-05-08T17:33:23.180Z,4.50
2023-05-08T17:36:09.254Z,4.20
2023-05-08T17:38:55.468Z,4.20
2023-05-08T17:41:42.089Z,4.50
2023-05-08T17:44:28.017Z,4.70
2023-05-08T17:47:13.899Z,4.50
2023-05-08T17:50:00.822Z,5.80
2023-05-08T17:52:46.819Z,4.90
2023-05-08T17:55:34.137Z,16.40
2023-05-08T17:58:19.881Z,27.40
2023-05-08T18:01:06.518Z,41.00
2023-05-08T18:03:52.636Z,49.80
2023-05-08T18:06:39.289Z,69.70
2023-05-08T18:09:25.353Z,59.70
2023-05-08T18:12:11.891Z,47.90
2023-05-08T18:14:58.773Z,18.70
2023-05-08T18:17:45.816Z,13.90
2023-05-08T18:20:31.813Z,6.60
2023-05-08T18:23:18.149Z,7.00
2023-05-08T18:26:04.235Z,5.60
2023-05-08T18:28:50.752Z,5.90
2023-05-08T18:31:36.534Z,5.60
2023-05-08T18:34:23.187Z,3.50
2023-05-08T18:37:09.154Z,4.20
2023-05-08T18:39:55.491Z,8.20
2023-05-08T18:42:44.474Z,8.60
2023-05-08T18:45:31.068Z,13.00
2023-05-08T18:48:16.751Z,12.50
2023-05-08T18:51:03.569Z,15.60
2023-05-08T18:53:49.454Z,19.40
2023-05-08T18:56:36.140Z,24.50
2023-05-08T18:59:22.085Z,18.70
2023-05-08T19:02:08.701Z,15.60
2023-05-08T19:04:55.171Z,22.60
2023-05-08T19:07:42.772Z,19.80
2023-05-08T19:10:30.482Z,22.30
2023-05-08T19:13:16.821Z,16.00
2023-05-08T19:16:03.103Z,18.00
2023-05-08T19:18:50.504Z,19.30
2023-05-08T19:21:36.472Z,16.80
2023-05-08T19:24:25.774Z,19.10
2023-05-08T19:27:12.089Z,13.30
2023-05-08T19:29:58.593Z,14.10
2023-05-08T19:32:44.838Z,13.70
2023-05-08T19:35:31.617Z,15.50
2023-05-08T19:38:17.341Z,18.20
2023-05-08T19:41:03.661Z,16.40
2023-05-08T19:43:49.800Z,12.60
2023-05-08T19:46:36.455Z,9.70
2023-05-08T19:49:23.936Z,8.40
2023-05-08T19:52:10.979Z,9.40
2023-05-08T19:54:57.144Z,12.50
2023-05-08T19:57:43.915Z,10.80
2023-05-08T20:00:29.944Z,10.40
2023-05-08T20:03:16.672Z,10.80
2023-05-08T20:06:02.755Z,10.10
2023-05-08T20:08:49.121Z,11.20
2023-05-08T20:11:35.116Z,11.00
2023-05-08T20:14:21.052Z,9.20
2023-05-08T20:17:07.080Z,9.90
2023-05-08T20:19:53.248Z,9.90
2023-05-08T20:22:39.348Z,9.00
2023-05-08T20:25:25.695Z,9.90
2023-05-08T20:28:11.507Z,8.40
2023-05-08T20:30:58.124Z,8.60
2023-05-08T20:33:43.966Z,10.30
2023-05-08T20:36:30.758Z,9.00
2023-05-08T20:39:16.876Z,11.10
2023-05-08T20:42:03.474Z,10.70
2023-05-08T20:44:49.203Z,8.70
2023-05-08T20:47:35.422Z,10.00
2023-05-08T20:50:21.299Z,9.70
2023-05-08T20:53:08.519Z,8.90
2023-05-08T20:56:01.330Z,8.80
2023-05-08T20:58:48.657Z,8.00
2023-05-08T21:01:34.715Z,8.20
2023-05-08T21:04:21.427Z,10.80
2023-05-08T21:07:07.499Z,9.30
2023-05-08T21:09:53.879Z,9.70
2023-05-08T21:12:39.680Z,8.90
2023-05-08T21:15:26.783Z,7.70
2023-05-08T21:18:12.907Z,9.60
2023-05-08T21:21:00.147Z,10.30
2023-05-08T21:23:45.835Z,11.20
2023-05-08T21:26:31.983Z,9.20
2023-05-08T21:29:18.011Z,8.30
2023-05-08T21:32:04.856Z,10.00
2023-05-08T21:34:50.571Z,8.60
2023-05-08T21:37:36.858Z,8.70
2023-05-08T21:40:23.060Z,9.90
2023-05-08T21:43:09.868Z,8.10
2023-05-08T21:45:55.697Z,10.50
2023-05-08T21:48:42.396Z,9.10
2023-05-08T21:51:28.515Z,9.60
2023-05-08T21:54:14.401Z,8.90
2023-05-08T21:57:00.186Z,10.50
2023-05-08T21:59:48.580Z,9.20
2023-05-08T22:02:34.813Z,10.10
2023-05-08T22:05:21.921Z,10.20
2023-05-08T22:08:08.181Z,8.70
2023-05-08T22:10:54.122Z,10.00
2023-05-08T22:13:40.273Z,11.80
2023-05-08T22:16:26.555Z,9.80
2023-05-08T22:19:13.168Z,9.80
2023-05-08T22:21:59.083Z,9.90
2023-05-08T22:24:45.223Z,8.00
2023-05-08T22:27:31.361Z,9.60
2023-05-08T22:30:17.765Z,10.40
2023-05-08T22:33:04.009Z,12.20
2023-05-08T22:35:50.861Z,10.30
2023-05-08T22:38:37.029Z,8.50
2023-05-08T22:41:23.932Z,10.50
2023-05-08T22:44:10.222Z,9.20
2023-05-08T22:46:57.231Z,9.70
2023-05-08T22:49:43.056Z,10.60
2023-05-08T22:52:29.172Z,9.00
2023-05-08T22:55:16.128Z,9.40
2023-05-08T22:58:03.279Z,9.40
2023-05-08T23:00:49.184Z,9.60
2023-05-08T23:03:35.753Z,10.90
2023-05-08T23:06:22.196Z,10.50
2023-05-08T23:09:08.118Z,10.40
2023-05-08T23:11:54.101Z,9.30
2023-05-08T23:14:40.321Z,10.00
2023-05-08T23:17:26.597Z,8.90
2023-05-08T23:20:12.906Z,10.00
2023-05-08T23:22:58.996Z,9.20
2023-05-08T23:25:45.241Z,9.20
2023-05-08T23:28:34.863Z,7.70
2023-05-08T23:31:21.516Z,10.90
2023-05-08T23:34:07.845Z,9.70
2023-05-08T23:36:53.913Z,11.70
2023-05-08T23:39:40.726Z,12.90
2023-05-08T23:42:27.483Z,10.70
2023-05-08T23:45:14.579Z,10.70
2023-05-08T23:48:02.224Z,9.40
2023-05-08T23:50:48.364Z,10.90
2023-05-08T23:53:34.735Z,8.70
2023-05-08T23:56:21.569Z,8.20
2023-05-08T23:59:07.544Z,9.40
